Time;durP1;ratioP1;P1;durP2;ratioP2;P2;SDS_P1;SDS_P2;PMS_P1;PMS_P2;Temp;Humidity;BMP_temperature;BMP_pressure;BME280_temperature;BME280_humidity;BME280_pressure;Samples;Min_cycle;Max_cycle;Signal;HPM_P1;HPM_P2
2022/09/26 00:00:41;;;;;;;7.80;6.80;;;;;;;;;;5054552;28;20029;-63
2022/09/26 00:03:08;;;;;;;7.95;6.18;;;;;;;;;;5054738;28;20041;-60
2022/09/26 00:05:35;;;;;;;8.60;6.07;;;;;;;;;;5054626;28;20036;-64
2022/09/26 00:08:02;;;;;;;8.60;6.13;;;;;;;;;;5054716;28;20025;-61
2022/09/26 00:10:28;;;;;;;10.30;6.05;;;;;;;;;;5054139;28;20029;-62
2022/09/26 00:12:55;;;;;;;11.10;6.30;;;;;;;;;;5054315;28;20392;-62
2022/09/26 00:15:21;;;;;;;10.85;6.82;;;;;;;;;;5054473;28;20531;-65
2022/09/26 00:17:47;;;;;;;11.50;7.03;;;;;;;;;;5054527;28;20045;-62
2022/09/26 00:20:12;;;;;;;8.43;6.43;;;;;;;;;;5054121;28;20052;-62
2022/09/26 00:22:38;;;;;;;7.68;6.38;;;;;;;;;;5054107;28;20091;-62
2022/09/26 00:25:05;;;;;;;9.15;7.05;;;;;;;;;;5054093;28;20021;-62
2022/09/26 00:27:34;;;;;;;11.80;7.40;;;;;;;;;;5053940;28;20365;-61
2022/09/26 00:29:59;;;;;;;10.40;7.97;;;;;;;;;;5052678;28;20384;-60
2022/09/26 00:32:44;;;;;;;7.90;6.47;;;;;;;;;;5052803;28;20099;-61
2022/09/26 00:35:10;;;;;;;11.85;7.03;;;;;;;;;;5052233;28;20102;-62
2022/09/26 00:37:36;;;;;;;12.38;7.40;;;;;;;;;;5052390;28;20405;-62
2022/09/26 00:40:02;;;;;;;10.18;8.18;;;;;;;;;;5053327;28;20033;-66
2022/09/26 00:42:28;;;;;;;9.65;7.22;;;;;;;;;;5053357;28;20505;-63
2022/09/26 00:44:55;;;;;;;9.23;7.82;;;;;;;;;;5053365;28;20103;-62
2022/09/26 00:47:47;;;;;;;14.32;7.95;;;;;;;;;;5053504;28;20429;-63
2022/09/26 00:50:39;;;;;;;8.02;6.97;;;;;;;;;;5052122;28;20126;-61
2022/09/26 00:53:11;;;;;;;9.85;8.07;;;;;;;;;;5052539;28;20048;-62
2022/09/26 00:55:47;;;;;;;10.63;7.55;;;;;;;;;;5052407;28;20082;-61
2022/09/26 00:58:28;;;;;;;11.40;7.43;;;;;;;;;;5053485;28;20029;-61
2022/09/26 01:00:54;;;;;;;8.50;7.35;;;;;;;;;;5072197;28;20385;-62
2022/09/26 01:03:23;;;;;;;8.10;7.28;;;;;;;;;;5070656;28;20030;-62
2022/09/26 01:05:49;;;;;;;10.50;7.50;;;;;;;;;;5072788;28;20024;-61
2022/09/26 01:08:19;;;;;;;12.82;8.13;;;;;;;;;;5072058;28;20544;-61
2022/09/26 01:10:45;;;;;;;8.85;6.85;;;;;;;;;;5091012;28;20032;-62
2022/09/26 01:13:12;;;;;;;9.10;7.20;;;;;;;;;;5089845;28;20073;-62
2022/09/26 01:15:37;;;;;;;17.00;7.55;;;;;;;;;;5069338;28;20029;-60
2022/09/26 01:18:04;;;;;;;12.88;7.43;;;;;;;;;;5051785;28;20604;-60
2022/09/26 01:20:34;;;;;;;9.15;7.10;;;;;;;;;;5050699;28;20028;-60
2022/09/26 01:23:09;;;;;;;9.65;7.25;;;;;;;;;;5053660;28;20076;-61
2022/09/26 01:25:44;;;;;;;9.75;7.05;;;;;;;;;;5067984;28;20106;-60
2022/09/26 01:28:38;;;;;;;9.98;7.35;;;;;;;;;;5071473;28;20036;-62
2022/09/26 01:35:25;;;;;;;12.70;8.65;;;;;;;;;;5027444;28;20042;-62
2022/09/26 01:38:00;;;;;;;12.48;8.38;;;;;;;;;;5050850;28;20056;-61
2022/09/26 01:40:36;;;;;;;12.85;8.80;;;;;;;;;;5067950;28;20036;-60
2022/09/26 01:43:18;;;;;;;11.10;8.60;;;;;;;;;;5070931;28;20056;-62
2022/09/26 01:46:07;;;;;;;9.93;7.78;;;;;;;;;;5069693;28;20075;-60
2022/09/26 01:48:43;;;;;;;11.38;8.05;;;;;;;;;;5072009;28;20025;-61
2022/09/26 01:51:23;;;;;;;15.02;8.02;;;;;;;;;;5066090;28;20388;-61
2022/09/26 01:54:12;;;;;;;10.20;7.20;;;;;;;;;;5071103;28;20127;-61
2022/09/26 01:56:40;;;;;;;9.07;7.53;;;;;;;;;;5069824;28;20044;-63
2022/09/26 01:59:12;;;;;;;15.52;7.15;;;;;;;;;;5070038;28;20044;-61
2022/09/26 02:01:49;;;;;;;9.50;7.30;;;;;;;;;;5070001;28;20120;-61
2022/09/26 02:04:24;;;;;;;12.23;7.38;;;;;;;;;;5077504;28;20036;-61
2022/09/26 02:07:03;;;;;;;10.25;8.00;;;;;;;;;;5088038;28;20036;-61
2022/09/26 02:09:38;;;;;;;19.20;8.27;;;;;;;;;;5067148;28;20029;-61
2022/09/26 02:12:11;;;;;;;17.63;7.43;;;;;;;;;;5069666;28;20040;-61
2022/09/26 02:14:40;;;;;;;10.82;6.22;;;;;;;;;;5053061;28;20123;-61
2022/09/26 02:17:16;;;;;;;8.63;6.20;;;;;;;;;;5070912;28;20025;-61
2022/09/26 02:19:58;;;;;;;10.02;5.75;;;;;;;;;;5070949;28;20119;-61
2022/09/26 02:22:34;;;;;;;14.75;6.65;;;;;;;;;;5069405;28;20352;-61
2022/09/26 02:25:01;;;;;;;10.13;6.35;;;;;;;;;;5068698;28;20036;-61
2022/09/26 02:27:27;;;;;;;14.68;7.60;;;;;;;;;;5069432;28;20029;-61
2022/09/26 02:29:54;;;;;;;11.25;6.10;;;;;;;;;;5069359;28;20491;-61
2022/09/26 02:32:26;;;;;;;10.07;5.97;;;;;;;;;;5069289;28;20389;-61
2022/09/26 02:34:54;;;;;;;12.70;6.93;;;;;;;;;;5069639;28;20132;-61
2022/09/26 02:37:20;;;;;;;13.38;6.78;;;;;;;;;;5069550;28;20086;-60
2022/09/26 02:39:49;;;;;;;11.23;6.63;;;;;;;;;;5069360;28;20490;-61
2022/09/26 02:42:39;;;;;;;15.23;7.45;;;;;;;;;;5069330;28;20036;-61
2022/09/26 02:45:15;;;;;;;13.82;6.80;;;;;;;;;;5069490;28;20403;-61
2022/09/26 02:48:03;;;;;;;16.88;7.38;;;;;;;;;;5069409;28;20033;-61
2022/09/26 02:50:49;;;;;;;10.65;7.13;;;;;;;;;;5105477;28;20036;-61
2022/09/26 02:53:40;;;;;;;11.90;7.15;;;;;;;;;;5087597;28;20117;-61
2022/09/26 02:56:15;;;;;;;10.23;6.65;;;;;;;;;;5087770;28;20127;-61
2022/09/26 02:58:44;;;;;;;13.32;7.25;;;;;;;;;;5088255;28;20039;-61
2022/09/26 03:01:48;;;;;;;10.30;7.25;;;;;;;;;;5088714;28;20080;-61
2022/09/26 03:04:38;;;;;;;14.15;9.15;;;;;;;;;;5068832;28;20068;-62
2022/09/26 03:07:10;;;;;;;14.20;10.10;;;;;;;;;;5068304;28;20131;-61
2022/09/26 03:09:38;;;;;;;12.82;9.60;;;;;;;;;;5070162;28;20033;-61
2022/09/26 03:12:06;;;;;;;20.58;9.90;;;;;;;;;;5070524;28;20059;-61
2022/09/26 03:14:35;;;;;;;18.73;9.65;;;;;;;;;;5084157;28;20035;-60
2022/09/26 03:17:02;;;;;;;15.88;9.50;;;;;;;;;;5066533;28;20028;-61
2022/09/26 03:19:44;;;;;;;12.98;8.88;;;;;;;;;;5070032;28;20065;-61
2022/09/26 03:22:11;;;;;;;33.85;12.00;;;;;;;;;;5064228;28;20035;-61
2022/09/26 03:24:41;;;;;;;23.33;11.13;;;;;;;;;;5070102;28;20025;-61
2022/09/26 03:27:10;;;;;;;16.25;9.15;;;;;;;;;;5073870;28;20033;-63
2022/09/26 03:29:37;;;;;;;15.73;9.13;;;;;;;;;;5055608;28;20445;-60
2022/09/26 03:32:12;;;;;;;13.85;8.88;;;;;;;;;;5072648;28;20363;-61
2022/09/26 03:34:38;;;;;;;13.43;8.40;;;;;;;;;;5072532;28;20053;-61
2022/09/26 03:37:06;;;;;;;13.10;8.02;;;;;;;;;;5072248;28;20063;-62
2022/09/26 03:39:32;;;;;;;12.43;8.63;;;;;;;;;;5070678;28;20036;-63
2022/09/26 03:42:02;;;;;;;15.77;8.48;;;;;;;;;;5072154;28;20123;-62
2022/09/26 03:44:29;;;;;;;12.10;7.88;;;;;;;;;;5072058;28;20474;-59
2022/09/26 03:47:16;;;;;;;12.77;7.43;;;;;;;;;;5073730;28;20076;-61
2022/09/26 03:49:47;;;;;;;17.92;9.00;;;;;;;;;;5083605;28;20518;-60
2022/09/26 03:52:13;;;;;;;9.63;8.45;;;;;;;;;;5073192;28;20067;-60
2022/09/26 03:54:40;;;;;;;15.95;10.05;;;;;;;;;;5071963;28;20048;-60
2022/09/26 03:57:06;;;;;;;14.57;9.13;;;;;;;;;;5074698;28;20032;-61
2022/09/26 03:59:37;;;;;;;10.50;7.40;;;;;;;;;;5073287;28;20048;-61
2022/09/26 04:02:04;;;;;;;16.73;9.10;;;;;;;;;;5069261;28;20033;-61
2022/09/26 04:04:34;;;;;;;18.75;9.55;;;;;;;;;;5054350;28;20046;-61
2022/09/26 04:07:00;;;;;;;14.57;8.10;;;;;;;;;;5037568;28;20147;-62
2022/09/26 04:09:27;;;;;;;17.00;8.48;;;;;;;;;;5053764;28;20557;-62
2022/09/26 04:11:53;;;;;;;14.57;7.90;;;;;;;;;;5064588;28;20388;-61
2022/09/26 04:14:20;;;;;;;17.25;8.35;;;;;;;;;;5053834;28;20083;-61
2022/09/26 04:16:52;;;;;;;11.95;7.97;;;;;;;;;;5067455;28;20171;-61
2022/09/26 04:19:47;;;;;;;12.93;7.25;;;;;;;;;;5065674;28;20127;-60
2022/09/26 04:22:13;;;;;;;13.30;8.05;;;;;;;;;;5073242;28;20086;-63
2022/09/26 04:24:40;;;;;;;16.15;8.48;;;;;;;;;;5073263;28;20025;-62
2022/09/26 04:27:07;;;;;;;11.07;7.00;;;;;;;;;;5073106;28;20032;-62
2022/09/26 04:29:34;;;;;;;13.75;8.10;;;;;;;;;;5063101;28;20507;-62
2022/09/26 04:32:13;;;;;;;13.27;8.60;;;;;;;;;;5053146;28;20395;-63
2022/09/26 04:34:51;;;;;;;15.52;9.18;;;;;;;;;;5068640;28;20491;-63
2022/09/26 04:37:19;;;;;;;15.57;8.70;;;;;;;;;;5072449;28;20039;-62
2022/09/26 04:39:46;;;;;;;10.98;7.63;;;;;;;;;;5070361;28;20032;-62
2022/09/26 04:42:12;;;;;;;16.05;8.32;;;;;;;;;;5072429;28;20052;-62
2022/09/26 04:44:38;;;;;;;12.07;7.93;;;;;;;;;;5071239;28;20086;-65
2022/09/26 04:47:04;;;;;;;14.02;8.20;;;;;;;;;;5070787;28;20024;-65
2022/09/26 04:49:53;;;;;;;18.83;9.18;;;;;;;;;;5068967;28;20062;-63
2022/09/26 04:52:19;;;;;;;14.48;8.32;;;;;;;;;;5068971;28;20111;-70
2022/09/26 04:54:46;;;;;;;12.38;8.07;;;;;;;;;;5071440;28;20024;-65
2022/09/26 04:57:13;;;;;;;19.70;9.63;;;;;;;;;;5073164;28;20115;-64
2022/09/26 04:59:39;;;;;;;12.57;7.47;;;;;;;;;;5072477;28;20558;-64
2022/09/26 05:02:06;;;;;;;10.07;7.45;;;;;;;;;;5072209;28;20119;-65
2022/09/26 05:04:39;;;;;;;14.27;9.10;;;;;;;;;;5088972;28;20115;-65
2022/09/26 05:07:05;;;;;;;10.20;7.38;;;;;;;;;;5056443;28;20120;-64
2022/09/26 05:09:31;;;;;;;16.08;8.25;;;;;;;;;;5057137;28;20060;-67
2022/09/26 05:12:02;;;;;;;13.80;7.78;;;;;;;;;;5063661;28;20343;-67
2022/09/26 05:14:34;;;;;;;13.13;7.25;;;;;;;;;;5069780;28;20036;-65
2022/09/26 05:17:01;;;;;;;10.50;7.00;;;;;;;;;;5070953;28;20036;-66
2022/09/26 05:19:27;;;;;;;14.85;7.30;;;;;;;;;;5070681;28;20028;-68
2022/09/26 05:22:22;;;;;;;15.38;6.93;;;;;;;;;;5052722;28;20059;-66
2022/09/26 05:27:34;;;;;;;10.90;6.40;;;;;;;;;;5067137;28;20037;-68
2022/09/26 05:30:00;;;;;;;11.38;6.65;;;;;;;;;;5060458;28;20453;-68
2022/09/26 05:32:27;;;;;;;9.73;4.97;;;;;;;;;;5061187;28;20119;-66
2022/09/26 05:34:54;;;;;;;11.45;6.00;;;;;;;;;;5063598;28;20063;-66
2022/09/26 05:37:20;;;;;;;19.45;5.38;;;;;;;;;;5051800;28;20032;-68
2022/09/26 05:42:35;;;;;;;9.43;5.55;;;;;;;;;;5050337;28;20048;-68
2022/09/26 05:45:02;;;;;;;16.42;7.13;;;;;;;;;;5050618;28;20080;-69
2022/09/26 05:47:33;;;;;;;12.88;6.65;;;;;;;;;;5049530;28;20190;-68
2022/09/26 05:49:59;;;;;;;12.55;6.13;;;;;;;;;;5050786;28;20037;-66
2022/09/26 05:52:27;;;;;;;8.27;5.30;;;;;;;;;;5049546;28;20043;-67
2022/09/26 05:54:53;;;;;;;13.70;5.75;;;;;;;;;;5049777;28;20429;-68
2022/09/26 05:57:37;;;;;;;6.95;5.30;;;;;;;;;;5051345;28;20384;-67
2022/09/26 06:00:04;;;;;;;9.38;5.30;;;;;;;;;;5051330;28;20037;-67
2022/09/26 06:02:57;;;;;;;7.07;5.72;;;;;;;;;;5052824;28;20494;-66
2022/09/26 06:05:33;;;;;;;10.25;5.95;;;;;;;;;;5051992;28;20029;-65
2022/09/26 06:08:14;;;;;;;13.32;5.28;;;;;;;;;;5052143;28;20041;-67
2022/09/26 06:10:48;;;;;;;12.13;5.50;;;;;;;;;;5057931;28;20047;-67
2022/09/26 06:13:14;;;;;;;8.20;4.82;;;;;;;;;;5052186;28;20029;-69
2022/09/26 06:15:44;;;;;;;9.13;5.35;;;;;;;;;;5051066;28;20086;-69
2022/09/26 06:18:10;;;;;;;8.88;5.50;;;;;;;;;;5052051;28;20041;-67
2022/09/26 06:20:37;;;;;;;10.90;5.50;;;;;;;;;;5052973;28;20491;-68
2022/09/26 06:23:03;;;;;;;12.18;5.30;;;;;;;;;;5053947;28;20060;-68
2022/09/26 06:25:30;;;;;;;7.20;5.55;;;;;;;;;;5068966;28;20447;-68
2022/09/26 06:27:59;;;;;;;7.68;5.30;;;;;;;;;;5052240;28;20036;-68
2022/09/26 06:30:25;;;;;;;5.88;4.75;;;;;;;;;;5051983;28;20029;-68
2022/09/26 06:33:00;;;;;;;9.52;5.65;;;;;;;;;;5052593;28;20039;-68
2022/09/26 06:35:38;;;;;;;10.07;5.88;;;;;;;;;;5071474;28;20045;-67
2022/09/26 06:38:16;;;;;;;9.75;5.10;;;;;;;;;;5054285;28;20079;-68
2022/09/26 06:40:43;;;;;;;9.85;5.35;;;;;;;;;;5052827;28;20049;-68
2022/09/26 06:43:09;;;;;;;8.23;5.63;;;;;;;;;;5067947;28;20483;-66
2022/09/26 06:46:08;;;;;;;9.45;5.07;;;;;;;;;;5052601;28;20519;-66
2022/09/26 06:49:00;;;;;;;11.25;5.20;;;;;;;;;;5043521;28;20091;-65
2022/09/26 06:51:40;;;;;;;12.82;5.03;;;;;;;;;;5054830;28;20033;-65
2022/09/26 06:54:07;;;;;;;10.35;4.82;;;;;;;;;;5053067;28;20037;-66
2022/09/26 06:56:33;;;;;;;8.98;4.95;;;;;;;;;;5060167;28;20019;-66
2022/09/26 06:58:58;;;;;;;10.35;5.72;;;;;;;;;;5071669;28;20122;-66
2022/09/26 07:01:31;;;;;;;10.35;5.68;;;;;;;;;;5061421;28;20023;-64
2022/09/26 07:04:29;;;;;;;7.30;5.28;;;;;;;;;;5062049;28;20049;-64
2022/09/26 07:07:13;;;;;;;11.88;5.60;;;;;;;;;;5073794;28;20037;-66
2022/09/26 07:09:39;;;;;;;13.15;5.38;;;;;;;;;;5074563;28;20419;-66
2022/09/26 07:12:14;;;;;;;9.40;4.38;;;;;;;;;;5075905;28;20031;-65
2022/09/26 07:14:42;;;;;;;9.45;5.10;;;;;;;;;;5074806;28;20028;-66
2022/09/26 07:17:20;;;;;;;8.60;4.70;;;;;;;;;;5070936;28;20025;-65
2022/09/26 07:20:10;;;;;;;10.02;4.82;;;;;;;;;;5065351;28;20035;-67
2022/09/26 07:23:01;;;;;;;9.95;4.63;;;;;;;;;;5064042;28;20513;-64
2022/09/26 07:25:30;;;;;;;6.45;4.10;;;;;;;;;;5074219;28;20040;-65
2022/09/26 07:27:56;;;;;;;12.95;5.72;;;;;;;;;;5073892;28;20065;-66
2022/09/26 07:30:33;;;;;;;9.90;4.68;;;;;;;;;;5069997;28;20094;-65
2022/09/26 07:33:06;;;;;;;7.43;4.05;;;;;;;;;;5065461;28;20032;-65
2022/09/26 07:35:45;;;;;;;7.25;4.40;;;;;;;;;;5073798;28;20108;-66
2022/09/26 07:38:12;;;;;;;5.60;3.88;;;;;;;;;;5070298;28;20050;-65
2022/09/26 07:40:39;;;;;;;8.63;4.35;;;;;;;;;;5054032;28;20028;-69
2022/09/26 07:43:05;;;;;;;16.48;5.68;;;;;;;;;;5053856;28;20543;-64
2022/09/26 07:51:37;;;;;;;7.55;3.45;;;;;;;;;;5052560;28;20396;-65
2022/09/26 07:54:06;;;;;;;9.00;4.18;;;;;;;;;;5083288;28;20048;-66
2022/09/26 07:56:42;;;;;;;8.07;3.80;;;;;;;;;;5075308;28;20028;-64
2022/09/26 07:59:37;;;;;;;12.02;4.18;;;;;;;;;;5054550;28;20550;-65
2022/09/26 08:02:33;;;;;;;6.20;4.13;;;;;;;;;;5071669;28;20052;-66
2022/09/26 08:05:02;;;;;;;5.80;3.42;;;;;;;;;;5072829;28;20487;-66
2022/09/26 08:07:34;;;;;;;5.75;3.70;;;;;;;;;;5072740;28;20033;-65
2022/09/26 08:10:17;;;;;;;9.23;3.92;;;;;;;;;;5072934;28;20074;-66
2022/09/26 08:13:18;;;;;;;9.70;3.60;;;;;;;;;;5073788;28;20070;-66
2022/09/26 08:16:04;;;;;;;5.30;3.65;;;;;;;;;;5074766;28;20047;-65
2022/09/26 08:18:32;;;;;;;6.60;3.63;;;;;;;;;;5073224;28;20604;-65
2022/09/26 08:20:58;;;;;;;9.07;3.40;;;;;;;;;;5073376;28;20033;-66
2022/09/26 08:23:25;;;;;;;5.03;3.33;;;;;;;;;;5072626;28;20041;-66
2022/09/26 08:26:22;;;;;;;6.00;3.35;;;;;;;;;;5073718;28;20086;-67
2022/09/26 08:28:53;;;;;;;7.78;3.65;;;;;;;;;;5073002;28;20033;-66
2022/09/26 08:31:19;;;;;;;3.90;2.90;;;;;;;;;;5072709;28;20077;-67
2022/09/26 08:33:46;;;;;;;5.22;3.05;;;;;;;;;;5072535;28;20059;-67
2022/09/26 08:36:16;;;;;;;7.40;3.20;;;;;;;;;;5071885;28;20247;-67
2022/09/26 08:39:01;;;;;;;7.03;3.22;;;;;;;;;;5073933;28;20048;-68
2022/09/26 08:41:52;;;;;;;10.98;3.65;;;;;;;;;;5073842;28;20044;-67
2022/09/26 08:44:51;;;;;;;8.80;3.38;;;;;;;;;;5072704;28;20036;-67
2022/09/26 08:47:52;;;;;;;4.47;3.28;;;;;;;;;;5072499;28;20090;-67
2022/09/26 08:50:32;;;;;;;3.80;3.00;;;;;;;;;;5052517;28;20043;-66
2022/09/26 08:53:01;;;;;;;;;;;;;;;;;;5067102;28;20050;-65
2022/09/26 08:55:38;;;;;;;6.22;2.67;;;;;;;;;;5072345;28;19916;-65
2022/09/26 08:58:17;;;;;;;3.65;2.40;;;;;;;;;;5072472;28;20045;-67
2022/09/26 09:00:45;;;;;;;3.92;2.40;;;;;;;;;;5071560;28;20079;-67
2022/09/26 09:03:33;;;;;;;6.57;2.45;;;;;;;;;;5072265;28;20060;-66
2022/09/26 09:06:09;;;;;;;4.65;2.40;;;;;;;;;;5072274;28;20036;-66
2022/09/26 09:08:39;;;;;;;4.10;2.30;;;;;;;;;;5071995;28;20142;-67
2022/09/26 09:12:20;;;;;;;2.63;2.00;;;;;;;;;;5071890;28;20051;-66
2022/09/26 09:15:13;;;;;;;3.50;1.88;;;;;;;;;;5033852;28;20045;-67
2022/09/26 09:18:33;;;;;;;4.40;2.60;;;;;;;;;;5033943;28;20033;-66
2022/09/26 09:22:10;;;;;;;4.18;2.10;;;;;;;;;;5072065;28;20037;-67
2022/09/26 09:25:00;;;;;;;5.55;2.58;;;;;;;;;;5070621;28;20459;-67
2022/09/26 09:27:52;;;;;;;4.80;2.00;;;;;;;;;;5071903;28;20047;-68
2022/09/26 09:30:23;;;;;;;4.70;2.10;;;;;;;;;;5072144;28;20055;-68
2022/09/26 09:33:01;;;;;;;4.32;2.42;;;;;;;;;;5073889;28;20037;-68
2022/09/26 09:35:50;;;;;;;7.55;2.40;;;;;;;;;;5068861;28;20072;-68
2022/09/26 09:38:49;;;;;;;2.90;2.00;;;;;;;;;;5071172;28;20055;-68
2022/09/26 09:41:48;;;;;;;5.40;2.35;;;;;;;;;;5071899;28;20059;-67
2022/09/26 09:44:27;;;;;;;3.20;2.00;;;;;;;;;;5073293;28;20036;-68
2022/09/26 09:46:53;;;;;;;3.25;1.70;;;;;;;;;;5073284;28;20115;-67
2022/09/26 09:49:21;;;;;;;3.45;1.70;;;;;;;;;;5071901;28;20056;-66
2022/09/26 09:51:59;;;;;;;4.15;1.85;;;;;;;;;;5071897;28;20115;-67
2022/09/26 09:54:28;;;;;;;3.08;1.83;;;;;;;;;;5071565;28;20041;-66
2022/09/26 09:57:32;;;;;;;3.83;1.98;;;;;;;;;;5071273;28;20028;-66
2022/09/26 10:00:14;;;;;;;;;;;;;;;;;;5072151;28;20506;-67
2022/09/26 10:03:00;;;;;;;3.33;2.20;;;;;;;;;;5071590;28;20386;-67
2022/09/26 10:05:43;;;;;;;3.42;2.25;;;;;;;;;;5049415;28;20391;-64
2022/09/26 10:08:21;;;;;;;4.75;2.50;;;;;;;;;;5059778;28;20491;-65
2022/09/26 10:11:27;;;;;;;3.60;2.65;;;;;;;;;;5051984;28;20033;-68
2022/09/26 10:14:12;;;;;;;7.03;2.75;;;;;;;;;;5052117;28;20091;-65
2022/09/26 10:17:08;;;;;;;5.18;2.67;;;;;;;;;;5052091;28;20040;-65
2022/09/26 10:19:42;;;;;;;5.45;2.92;;;;;;;;;;5050974;28;20036;-65
2022/09/26 10:22:36;;;;;;;5.05;2.97;;;;;;;;;;5051323;28;20041;-66
2022/09/26 10:25:21;;;;;;;4.80;2.30;;;;;;;;;;5051254;28;20095;-67
2022/09/26 10:27:54;;;;;;;3.10;2.30;;;;;;;;;;5050931;28;20447;-66
2022/09/26 10:30:25;;;;;;;;;;;;;;;;;;5051347;28;20430;-66
2022/09/26 10:32:57;;;;;;;5.90;2.60;;;;;;;;;;5051042;28;20015;-66
2022/09/26 10:36:03;;;;;;;6.82;2.30;;;;;;;;;;5050912;28;20056;-65
2022/09/26 10:38:30;;;;;;;4.97;2.20;;;;;;;;;;5051106;28;20029;-65
2022/09/26 10:41:05;;;;;;;3.33;2.50;;;;;;;;;;5050821;28;20052;-65
2022/09/26 10:43:36;;;;;;;8.75;2.53;;;;;;;;;;5051159;28;20060;-66
2022/09/26 10:46:27;;;;;;;3.97;2.40;;;;;;;;;;5051288;28;20120;-65
2022/09/26 10:49:14;;;;;;;6.22;2.55;;;;;;;;;;5052760;28;20040;-66
2022/09/26 10:52:13;;;;;;;6.85;2.47;;;;;;;;;;5051740;28;20079;-66
2022/09/26 10:55:23;;;;;;;4.05;2.35;;;;;;;;;;5051388;28;20144;-66
2022/09/26 10:58:04;;;;;;;4.32;2.60;;;;;;;;;;5051031;28;20096;-65
2022/09/26 11:00:42;;;;;;;5.57;2.38;;;;;;;;;;5051114;28;20079;-67
2022/09/26 11:03:31;;;;;;;8.98;2.65;;;;;;;;;;5050927;28;20515;-65
2022/09/26 11:06:32;;;;;;;5.32;2.38;;;;;;;;;;5052435;28;20110;-65
2022/09/26 11:09:21;;;;;;;6.55;2.33;;;;;;;;;;5050934;28;20037;-67
2022/09/26 11:11:54;;;;;;;3.70;2.38;;;;;;;;;;5052308;28;20033;-67
2022/09/26 11:14:27;;;;;;;6.93;2.78;;;;;;;;;;5050971;28;20037;-67
2022/09/26 11:17:01;;;;;;;7.70;2.67;;;;;;;;;;5051227;28;20392;-67
2022/09/26 11:19:44;;;;;;;5.15;2.55;;;;;;;;;;5046129;28;20047;-67
2022/09/26 11:22:34;;;;;;;3.63;2.55;;;;;;;;;;5069938;28;20036;-67
2022/09/26 11:25:21;;;;;;;5.22;2.20;;;;;;;;;;5070945;28;20488;-69
2022/09/26 11:27:54;;;;;;;4.13;2.20;;;;;;;;;;5071133;28;20040;-69
2022/09/26 11:30:38;;;;;;;7.68;2.47;;;;;;;;;;5071040;28;20029;-69
2022/09/26 11:33:12;;;;;;;6.43;2.22;;;;;;;;;;5070463;28;20128;-67
2022/09/26 11:36:09;;;;;;;4.95;2.10;;;;;;;;;;5061153;28;20403;-67
2022/09/26 11:38:54;;;;;;;9.07;2.35;;;;;;;;;;5070292;28;20033;-67
2022/09/26 11:42:03;;;;;;;5.43;2.30;;;;;;;;;;5069874;28;20086;-71
2022/09/26 11:44:41;;;;;;;5.10;2.50;;;;;;;;;;5064669;28;20133;-67
2022/09/26 11:47:51;;;;;;;6.60;2.45;;;;;;;;;;5075041;28;20060;-67
2022/09/26 11:50:52;;;;;;;5.13;2.30;;;;;;;;;;5039867;28;20148;-67
2022/09/26 11:53:51;;;;;;;2.90;2.17;;;;;;;;;;5053285;28;20395;-70
2022/09/26 11:56:28;;;;;;;2.65;1.90;;;;;;;;;;5054925;28;20472;-67
2022/09/26 11:59:14;;;;;;;6.40;2.17;;;;;;;;;;5054943;28;20067;-69
2022/09/26 12:02:02;;;;;;;4.70;1.85;;;;;;;;;;5066816;28;20099;-68
2022/09/26 12:05:06;;;;;;;3.42;2.13;;;;;;;;;;5074653;28;20033;-67
2022/09/26 12:08:04;;;;;;;4.90;2.30;;;;;;;;;;5074623;28;20035;-70
2022/09/26 12:10:49;;;;;;;9.27;2.45;;;;;;;;;;5074444;28;20094;-66
2022/09/26 12:13:17;;;;;;;5.95;2.83;;;;;;;;;;5074066;28;20594;-68
2022/09/26 12:15:56;;;;;;;6.13;2.22;;;;;;;;;;5074413;28;20025;-68
2022/09/26 12:19:10;;;;;;;5.78;2.22;;;;;;;;;;5074586;28;20111;-66
2022/09/26 12:24:45;;;;;;;7.10;2.47;;;;;;;;;;5074644;28;19923;-68
2022/09/26 12:27:38;;;;;;;4.57;2.60;;;;;;;;;;5073925;28;20067;-66
2022/09/26 12:30:24;;;;;;;3.55;2.55;;;;;;;;;;5072932;28;20048;-70
2022/09/26 12:33:01;;;;;;;9.35;2.70;;;;;;;;;;5074459;28;20036;-69
2022/09/26 12:35:44;;;;;;;6.25;2.63;;;;;;;;;;5062042;28;20492;-67
2022/09/26 12:38:31;;;;;;;8.43;2.50;;;;;;;;;;5054310;28;20039;-69
2022/09/26 12:41:01;;;;;;;3.75;2.53;;;;;;;;;;5059315;28;20032;-70
2022/09/26 12:43:45;;;;;;;2.42;2.17;;;;;;;;;;5063460;28;20047;-68
2022/09/26 12:46:47;;;;;;;4.60;2.10;;;;;;;;;;5064276;28;20111;-70
2022/09/26 12:49:19;;;;;;;3.95;2.28;;;;;;;;;;5061715;28;20025;-67
2022/09/26 12:51:54;;;;;;;4.03;2.33;;;;;;;;;;5061441;28;20460;-67
2022/09/26 12:54:31;;;;;;;6.88;2.40;;;;;;;;;;5062702;28;20432;-71
2022/09/26 12:57:37;;;;;;;8.30;3.55;;;;;;;;;;5063027;28;20028;-68
2022/09/26 13:00:09;;;;;;;5.93;2.60;;;;;;;;;;5061499;28;20036;-72
2022/09/26 13:02:41;;;;;;;3.70;2.53;;;;;;;;;;5078332;28;20484;-69
2022/09/26 13:05:29;;;;;;;8.55;2.97;;;;;;;;;;5060376;28;20104;-69
2022/09/26 13:08:20;;;;;;;5.05;3.00;;;;;;;;;;5057997;28;20115;-66
2022/09/26 13:11:01;;;;;;;7.90;3.00;;;;;;;;;;5057256;28;20267;-70
2022/09/26 13:13:48;;;;;;;4.53;3.13;;;;;;;;;;5061770;28;20037;-70
2022/09/26 13:16:39;;;;;;;3.17;2.50;;;;;;;;;;5055939;28;20149;-70
2022/09/26 13:19:23;;;;;;;6.10;3.00;;;;;;;;;;5061743;28;20549;-68
2022/09/26 13:21:58;;;;;;;3.97;2.78;;;;;;;;;;5063060;28;20483;-71
2022/09/26 13:24:33;;;;;;;4.65;2.70;;;;;;;;;;5068383;28;20037;-67
2022/09/26 13:27:25;;;;;;;7.38;3.80;;;;;;;;;;5070217;28;20025;-72
2022/09/26 13:30:03;;;;;;;3.92;2.90;;;;;;;;;;5056519;28;20518;-70
2022/09/26 13:32:55;;;;;;;7.15;2.90;;;;;;;;;;5059721;28;20165;-72
2022/09/26 13:35:24;;;;;;;7.47;3.10;;;;;;;;;;5062554;28;20451;-74
2022/09/26 13:38:15;;;;;;;9.77;3.75;;;;;;;;;;5070287;28;20067;-69
2022/09/26 13:40:56;;;;;;;4.20;2.65;;;;;;;;;;5068568;28;20037;-73
2022/09/26 13:44:07;;;;;;;3.50;2.90;;;;;;;;;;5069323;28;20036;-72
2022/09/26 13:46:52;;;;;;;4.72;3.00;;;;;;;;;;5020529;28;20124;-76
2022/09/26 13:49:33;;;;;;;4.25;2.80;;;;;;;;;;5061668;28;20040;-69
2022/09/26 13:52:33;;;;;;;4.82;3.70;;;;;;;;;;5080544;28;20029;-68
2022/09/26 13:55:13;;;;;;;8.90;3.50;;;;;;;;;;5060910;28;20033;-69
2022/09/26 13:58:02;;;;;;;4.90;3.20;;;;;;;;;;5067648;28;20033;-68
2022/09/26 14:00:37;;;;;;;3.78;2.80;;;;;;;;;;5068055;28;20446;-68
2022/09/26 14:03:08;;;;;;;5.53;2.92;;;;;;;;;;5061401;28;20317;-68
2022/09/26 14:05:40;;;;;;;5.18;2.85;;;;;;;;;;5067477;28;20025;-68
2022/09/26 14:11:33;;;;;;;4.53;2.92;;;;;;;;;;5070168;28;20077;-70
2022/09/26 14:14:18;;;;;;;3.53;2.80;;;;;;;;;;5066227;28;20028;-67
2022/09/26 14:16:56;;;;;;;5.32;2.80;;;;;;;;;;5056158;28;20033;-66
2022/09/26 14:19:23;;;;;;;5.32;2.55;;;;;;;;;;5063375;28;20025;-66
2022/09/26 14:22:02;;;;;;;3.83;3.03;;;;;;;;;;5070992;28;20406;-67
2022/09/26 14:24:37;;;;;;;3.78;2.72;;;;;;;;;;5062468;28;20490;-67
2022/09/26 14:27:09;;;;;;;6.53;2.92;;;;;;;;;;5055962;28;20033;-66
2022/09/26 14:29:37;;;;;;;3.55;2.85;;;;;;;;;;5060160;28;20017;-66
2022/09/26 14:32:13;;;;;;;5.53;2.80;;;;;;;;;;5069265;28;20028;-66
2022/09/26 14:34:58;;;;;;;5.53;2.10;;;;;;;;;;5067935;28;20085;-67
2022/09/26 14:37:28;;;;;;;6.40;2.10;;;;;;;;;;5061651;28;20040;-67
2022/09/26 14:40:08;;;;;;;9.40;2.03;;;;;;;;;;5064368;28;20036;-69
2022/09/26 14:42:37;;;;;;;4.75;2.15;;;;;;;;;;5065461;28;20188;-67
2022/09/26 14:45:06;;;;;;;4.00;2.08;;;;;;;;;;5064456;28;20405;-66
2022/09/26 14:48:07;;;;;;;3.45;2.08;;;;;;;;;;5067969;28;20025;-66
2022/09/26 14:50:51;;;;;;;4.57;2.08;;;;;;;;;;5068204;28;20035;-66
2022/09/26 14:53:33;;;;;;;6.82;2.10;;;;;;;;;;5053806;28;20044;-66
2022/09/26 14:56:37;;;;;;;4.90;2.20;;;;;;;;;;5056518;28;20033;-67
2022/09/26 14:59:15;;;;;;;;;;;;;;;;;;5064798;28;20093;-66
2022/09/26 15:01:44;;;;;;;5.78;2.00;;;;;;;;;;5068274;28;19920;-65
2022/09/26 15:04:21;;;;;;;8.63;2.00;;;;;;;;;;5062965;28;20036;-67
2022/09/26 15:06:51;;;;;;;4.78;1.90;;;;;;;;;;5062736;28;20450;-66
2022/09/26 15:09:32;;;;;;;3.97;2.05;;;;;;;;;;5057908;28;20033;-67
2022/09/26 15:12:01;;;;;;;4.95;2.90;;;;;;;;;;5063370;28;20075;-66
2022/09/26 15:14:47;;;;;;;3.33;1.77;;;;;;;;;;5064306;28;20027;-66
2022/09/26 15:17:19;;;;;;;7.15;2.10;;;;;;;;;;5058501;28;20104;-67
2022/09/26 15:19:51;;;;;;;4.75;1.90;;;;;;;;;;5071771;28;20117;-67
2022/09/26 15:22:24;;;;;;;4.22;2.20;;;;;;;;;;5069503;28;20320;-65
2022/09/26 15:25:05;;;;;;;7.80;2.50;;;;;;;;;;5069768;28;20120;-66
2022/09/26 15:27:32;;;;;;;7.47;2.10;;;;;;;;;;5067039;28;20025;-67
2022/09/26 15:30:16;;;;;;;3.50;2.17;;;;;;;;;;5070964;28;20088;-66
2022/09/26 15:32:46;;;;;;;5.93;2.20;;;;;;;;;;5062687;28;20044;-66
2022/09/26 15:35:14;;;;;;;5.30;2.15;;;;;;;;;;5072302;28;20437;-66
2022/09/26 15:37:41;;;;;;;5.03;2.20;;;;;;;;;;5066190;28;20037;-66
2022/09/26 15:40:22;;;;;;;8.95;2.58;;;;;;;;;;5066302;28;20544;-66
2022/09/26 15:43:06;;;;;;;4.15;2.30;;;;;;;;;;5066695;28;20040;-66
2022/09/26 15:45:56;;;;;;;7.10;2.47;;;;;;;;;;5069987;28;20082;-66
2022/09/26 15:48:26;;;;;;;9.55;2.50;;;;;;;;;;5062774;28;20021;-66
2022/09/26 15:51:04;;;;;;;10.90;2.50;;;;;;;;;;5066887;28;20459;-66
2022/09/26 15:54:06;;;;;;;7.85;2.97;;;;;;;;;;5071076;28;20493;-65
2022/09/26 15:56:47;;;;;;;9.85;3.20;;;;;;;;;;5064411;28;20194;-65
2022/09/26 15:59:21;;;;;;;6.72;2.88;;;;;;;;;;5071058;28;20032;-66
2022/09/26 16:01:47;;;;;;;10.48;4.88;;;;;;;;;;5063562;28;20120;-65